sensor_id;sensor_type;location;lat;lon;timestamp;P1;durP1;ratioP1;P2;durP2;ratioP2
73779;SDS011;62093;37.614;15.072;2023-05-29T00:01:25;9.85;;;6.45;;
73779;SDS011;62093;37.614;15.072;2023-05-29T00:03:52;9.10;;;6.22;;
73779;SDS011;62093;37.614;15.072;2023-05-29T00:06:19;10.43;;;6.72;;
73779;SDS011;62093;37.614;15.072;2023-05-29T00:08:45;9.60;;;6.70;;
73779;SDS011;62093;37.614;15.072;2023-05-29T00:11:11;9.52;;;6.25;;
73779;SDS011;62093;37.614;15.072;2023-05-29T00:13:37;10.02;;;6.85;;
73779;SDS011;62093;37.614;15.072;2023-05-29T00:16:03;9.02;;;6.45;;
73779;SDS011;62093;37.614;15.072;2023-05-29T00:18:30;9.10;;;6.43;;
73779;SDS011;62093;37.614;15.072;2023-05-29T00:20:56;10.53;;;7.20;;
73779;SDS011;62093;37.614;15.072;2023-05-29T00:23:22;9.52;;;6.55;;
73779;SDS011;62093;37.614;15.072;2023-05-29T00:25:48;9.38;;;6.32;;
73779;SDS011;62093;37.614;15.072;2023-05-29T00:28:14;9.77;;;6.78;;
73779;SDS011;62093;37.614;15.072;2023-05-29T00:30:41;8.95;;;6.00;;
73779;SDS011;62093;37.614;15.072;2023-05-29T00:33:07;9.93;;;6.70;;
73779;SDS011;62093;37.614;15.072;2023-05-29T00:35:33;8.93;;;6.15;;
73779;SDS011;62093;37.614;15.072;2023-05-29T00:38:00;8.85;;;6.30;;
73779;SDS011;62093;37.614;15.072;2023-05-29T00:40:26;9.60;;;6.25;;
73779;SDS011;62093;37.614;15.072;2023-05-29T00:42:52;9.00;;;6.20;;
73779;SDS011;62093;37.614;15.072;2023-05-29T00:45:18;9.90;;;6.20;;
73779;SDS011;62093;37.614;15.072;2023-05-29T00:47:45;8.95;;;5.97;;
73779;SDS011;62093;37.614;15.072;2023-05-29T00:50:12;9.95;;;6.57;;
73779;SDS011;62093;37.614;15.072;2023-05-29T00:52:40;8.98;;;6.25;;
73779;SDS011;62093;37.614;15.072;2023-05-29T00:55:06;9.50;;;6.22;;
73779;SDS011;62093;37.614;15.072;2023-05-29T00:57:34;8.63;;;6.00;;
73779;SDS011;62093;37.614;15.072;2023-05-29T01:00:04;8.90;;;5.95;;
73779;SDS011;62093;37.614;15.072;2023-05-29T01:02:42;9.18;;;6.38;;
73779;SDS011;62093;37.614;15.072;2023-05-29T01:05:13;9.00;;;6.30;;
73779;SDS011;62093;37.614;15.072;2023-05-29T01:07:42;8.60;;;5.90;;
73779;SDS011;62093;37.614;15.072;2023-05-29T01:10:09;9.43;;;6.57;;
73779;SDS011;62093;37.614;15.072;2023-05-29T01:12:56;9.18;;;5.97;;
73779;SDS011;62093;37.614;15.072;2023-05-29T01:18:50;9.13;;;6.10;;
73779;SDS011;62093;37.614;15.072;2023-05-29T01:29:19;8.65;;;5.82;;
73779;SDS011;62093;37.614;15.072;2023-05-29T01:31:50;9.20;;;6.13;;
73779;SDS011;62093;37.614;15.072;2023-05-29T01:34:18;8.93;;;6.03;;
73779;SDS011;62093;37.614;15.072;2023-05-29T01:36:45;8.83;;;5.80;;
73779;SDS011;62093;37.614;15.072;2023-05-29T01:39:11;9.15;;;5.65;;
73779;SDS011;62093;37.614;15.072;2023-05-29T01:41:38;9.77;;;5.95;;
73779;SDS011;62093;37.614;15.072;2023-05-29T01:44:06;9.27;;;5.90;;
73779;SDS011;62093;37.614;15.072;2023-05-29T01:46:38;8.73;;;6.07;;
73779;SDS011;62093;37.614;15.072;2023-05-29T01:49:06;9.63;;;5.87;;
73779;SDS011;62093;37.614;15.072;2023-05-29T01:51:33;9.15;;;6.28;;
73779;SDS011;62093;37.614;15.072;2023-05-29T01:54:00;8.25;;;6.00;;
73779;SDS011;62093;37.614;15.072;2023-05-29T01:56:27;8.73;;;6.03;;
73779;SDS011;62093;37.614;15.072;2023-05-29T01:58:55;9.10;;;6.05;;
73779;SDS011;62093;37.614;15.072;2023-05-29T02:01:22;9.40;;;5.80;;
73779;SDS011;62093;37.614;15.072;2023-05-29T02:03:49;9.15;;;5.63;;
73779;SDS011;62093;37.614;15.072;2023-05-29T02:06:16;9.02;;;5.57;;
73779;SDS011;62093;37.614;15.072;2023-05-29T02:08:42;9.18;;;5.95;;
73779;SDS011;62093;37.614;15.072;2023-05-29T02:11:09;9.15;;;6.25;;
73779;SDS011;62093;37.614;15.072;2023-05-29T02:13:37;9.43;;;5.90;;
73779;SDS011;62093;37.614;15.072;2023-05-29T02:16:03;9.45;;;6.20;;
73779;SDS011;62093;37.614;15.072;2023-05-29T02:18:29;7.95;;;5.45;;
73779;SDS011;62093;37.614;15.072;2023-05-29T02:20:55;7.97;;;5.43;;
73779;SDS011;62093;37.614;15.072;2023-05-29T02:23:21;9.57;;;5.72;;
73779;SDS011;62093;37.614;15.072;2023-05-29T02:25:50;8.10;;;5.60;;
73779;SDS011;62093;37.614;15.072;2023-05-29T02:28:16;9.25;;;6.03;;
73779;SDS011;62093;37.614;15.072;2023-05-29T02:30:42;8.88;;;5.50;;
73779;SDS011;62093;37.614;15.072;2023-05-29T02:33:08;8.65;;;5.90;;
73779;SDS011;62093;37.614;15.072;2023-05-29T02:35:34;9.52;;;5.10;;
73779;SDS011;62093;37.614;15.072;2023-05-29T02:38:00;8.83;;;5.40;;
73779;SDS011;62093;37.614;15.072;2023-05-29T02:40:26;7.88;;;5.25;;
73779;SDS011;62093;37.614;15.072;2023-05-29T02:42:52;8.88;;;5.80;;
73779;SDS011;62093;37.614;15.072;2023-05-29T02:45:19;8.95;;;5.50;;
73779;SDS011;62093;37.614;15.072;2023-05-29T02:47:45;8.18;;;5.15;;
73779;SDS011;62093;37.614;15.072;2023-05-29T02:50:11;8.53;;;5.10;;
73779;SDS011;62093;37.614;15.072;2023-05-29T02:52:40;7.50;;;5.18;;
73779;SDS011;62093;37.614;15.072;2023-05-29T02:55:07;8.98;;;5.50;;
73779;SDS011;62093;37.614;15.072;2023-05-29T02:57:33;9.00;;;5.63;;
73779;SDS011;62093;37.614;15.072;2023-05-29T02:59:59;8.68;;;5.50;;
73779;SDS011;62093;37.614;15.072;2023-05-29T03:02:26;8.13;;;5.00;;
73779;SDS011;62093;37.614;15.072;2023-05-29T03:04:52;8.10;;;5.38;;
73779;SDS011;62093;37.614;15.072;2023-05-29T03:07:19;8.88;;;5.35;;
73779;SDS011;62093;37.614;15.072;2023-05-29T03:09:45;8.82;;;5.38;;
73779;SDS011;62093;37.614;15.072;2023-05-29T03:12:11;8.43;;;5.22;;
73779;SDS011;62093;37.614;15.072;2023-05-29T03:14:38;7.70;;;5.27;;
73779;SDS011;62093;37.614;15.072;2023-05-29T03:17:08;7.95;;;5.40;;
73779;SDS011;62093;37.614;15.072;2023-05-29T03:19:34;7.47;;;5.20;;
73779;SDS011;62093;37.614;15.072;2023-05-29T03:22:01;8.32;;;5.10;;
73779;SDS011;62093;37.614;15.072;2023-05-29T03:24:29;8.90;;;5.15;;
73779;SDS011;62093;37.614;15.072;2023-05-29T03:26:55;9.50;;;5.57;;
73779;SDS011;62093;37.614;15.072;2023-05-29T03:29:22;8.98;;;5.60;;
73779;SDS011;62093;37.614;15.072;2023-05-29T03:31:50;7.75;;;5.20;;
73779;SDS011;62093;37.614;15.072;2023-05-29T03:34:23;7.90;;;5.05;;
73779;SDS011;62093;37.614;15.072;2023-05-29T03:36:55;8.87;;;5.33;;
73779;SDS011;62093;37.614;15.072;2023-05-29T03:39:23;8.10;;;5.15;;
73779;SDS011;62093;37.614;15.072;2023-05-29T03:41:50;8.07;;;5.22;;
73779;SDS011;62093;37.614;15.072;2023-05-29T03:44:17;7.40;;;4.82;;
73779;SDS011;62093;37.614;15.072;2023-05-29T03:46:43;7.93;;;5.10;;
73779;SDS011;62093;37.614;15.072;2023-05-29T03:49:10;7.80;;;4.77;;
73779;SDS011;62093;37.614;15.072;2023-05-29T03:51:37;7.93;;;5.20;;
73779;SDS011;62093;37.614;15.072;2023-05-29T03:54:04;7.78;;;5.13;;
73779;SDS011;62093;37.614;15.072;2023-05-29T03:56:32;8.85;;;5.60;;
73779;SDS011;62093;37.614;15.072;2023-05-29T03:58:57;7.95;;;5.25;;
73779;SDS011;62093;37.614;15.072;2023-05-29T04:01:24;7.77;;;5.03;;
73779;SDS011;62093;37.614;15.072;2023-05-29T04:03:50;7.93;;;5.53;;
73779;SDS011;62093;37.614;15.072;2023-05-29T04:06:16;7.80;;;5.05;;
73779;SDS011;62093;37.614;15.072;2023-05-29T04:08:42;8.45;;;4.95;;
73779;SDS011;62093;37.614;15.072;2023-05-29T04:11:08;7.37;;;4.90;;
73779;SDS011;62093;37.614;15.072;2023-05-29T04:13:37;7.97;;;5.22;;
73779;SDS011;62093;37.614;15.072;2023-05-29T04:16:05;8.23;;;5.15;;
73779;SDS011;62093;37.614;15.072;2023-05-29T04:18:32;8.23;;;5.15;;
73779;SDS011;62093;37.614;15.072;2023-05-29T04:20:59;6.65;;;4.35;;
73779;SDS011;62093;37.614;15.072;2023-05-29T04:23:26;8.47;;;4.87;;
73779;SDS011;62093;37.614;15.072;2023-05-29T04:25:52;8.30;;;4.50;;
73779;SDS011;62093;37.614;15.072;2023-05-29T04:28:24;8.23;;;4.50;;
73779;SDS011;62093;37.614;15.072;2023-05-29T04:30:51;7.53;;;4.28;;
73779;SDS011;62093;37.614;15.072;2023-05-29T04:33:18;7.13;;;4.28;;
73779;SDS011;62093;37.614;15.072;2023-05-29T04:35:48;6.80;;;4.23;;
73779;SDS011;62093;37.614;15.072;2023-05-29T04:38:16;8.07;;;4.30;;
73779;SDS011;62093;37.614;15.072;2023-05-29T04:40:43;6.88;;;4.30;;
73779;SDS011;62093;37.614;15.072;2023-05-29T04:43:12;7.25;;;4.38;;
73779;SDS011;62093;37.614;15.072;2023-05-29T04:46:01;7.97;;;4.75;;
73779;SDS011;62093;37.614;15.072;2023-05-29T04:48:28;7.30;;;4.27;;
73779;SDS011;62093;37.614;15.072;2023-05-29T04:50:55;6.45;;;4.30;;
73779;SDS011;62093;37.614;15.072;2023-05-29T04:53:23;7.13;;;4.38;;
73779;SDS011;62093;37.614;15.072;2023-05-29T04:55:49;7.40;;;4.55;;
73779;SDS011;62093;37.614;15.072;2023-05-29T04:58:15;7.10;;;4.47;;
73779;SDS011;62093;37.614;15.072;2023-05-29T05:00:41;7.43;;;4.10;;
73779;SDS011;62093;37.614;15.072;2023-05-29T05:03:09;7.82;;;4.65;;
73779;SDS011;62093;37.614;15.072;2023-05-29T05:05:37;7.53;;;4.15;;
73779;SDS011;62093;37.614;15.072;2023-05-29T05:08:03;7.97;;;4.78;;
73779;SDS011;62093;37.614;15.072;2023-05-29T05:10:29;6.72;;;4.30;;
73779;SDS011;62093;37.614;15.072;2023-05-29T05:12:56;6.90;;;4.30;;
73779;SDS011;62093;37.614;15.072;2023-05-29T05:15:22;7.53;;;5.00;;
73779;SDS011;62093;37.614;15.072;2023-05-29T05:17:48;7.28;;;4.10;;
73779;SDS011;62093;37.614;15.072;2023-05-29T05:20:16;8.07;;;4.28;;
73779;SDS011;62093;37.614;15.072;2023-05-29T05:22:45;8.00;;;5.50;;
73779;SDS011;62093;37.614;15.072;2023-05-29T05:25:11;7.37;;;4.83;;
73779;SDS011;62093;37.614;15.072;2023-05-29T05:27:37;7.35;;;4.28;;
73779;SDS011;62093;37.614;15.072;2023-05-29T05:30:03;7.72;;;5.05;;
73779;SDS011;62093;37.614;15.072;2023-05-29T05:32:30;7.40;;;4.68;;
73779;SDS011;62093;37.614;15.072;2023-05-29T05:35:04;7.45;;;4.40;;
73779;SDS011;62093;37.614;15.072;2023-05-29T05:37:30;7.77;;;4.57;;
73779;SDS011;62093;37.614;15.072;2023-05-29T05:39:56;7.30;;;4.65;;
73779;SDS011;62093;37.614;15.072;2023-05-29T05:42:24;8.05;;;4.80;;
73779;SDS011;62093;37.614;15.072;2023-05-29T05:44:56;7.55;;;4.43;;
73779;SDS011;62093;37.614;15.072;2023-05-29T05:47:24;6.88;;;4.45;;
73779;SDS011;62093;37.614;15.072;2023-05-29T05:49:50;7.60;;;4.80;;
73779;SDS011;62093;37.614;15.072;2023-05-29T05:52:17;7.43;;;5.10;;
73779;SDS011;62093;37.614;15.072;2023-05-29T05:54:44;7.45;;;4.93;;
73779;SDS011;62093;37.614;15.072;2023-05-29T05:57:12;7.28;;;4.57;;
73779;SDS011;62093;37.614;15.072;2023-05-29T05:59:39;7.80;;;4.57;;
73779;SDS011;62093;37.614;15.072;2023-05-29T06:02:05;7.03;;;4.60;;
73779;SDS011;62093;37.614;15.072;2023-05-29T06:04:32;7.63;;;4.80;;
73779;SDS011;62093;37.614;15.072;2023-05-29T06:06:58;6.88;;;4.55;;
73779;SDS011;62093;37.614;15.072;2023-05-29T06:09:24;7.63;;;4.75;;
73779;SDS011;62093;37.614;15.072;2023-05-29T06:11:52;7.00;;;4.70;;
73779;SDS011;62093;37.614;15.072;2023-05-29T06:14:18;7.00;;;4.30;;
73779;SDS011;62093;37.614;15.072;2023-05-29T06:16:45;6.53;;;4.32;;
73779;SDS011;62093;37.614;15.072;2023-05-29T06:19:11;8.15;;;4.70;;
73779;SDS011;62093;37.614;15.072;2023-05-29T06:21:51;7.18;;;4.47;;
73779;SDS011;62093;37.614;15.072;2023-05-29T06:24:17;7.75;;;4.50;;
73779;SDS011;62093;37.614;15.072;2023-05-29T06:26:43;6.47;;;3.97;;
73779;SDS011;62093;37.614;15.072;2023-05-29T06:29:11;7.30;;;4.32;;
73779;SDS011;62093;37.614;15.072;2023-05-29T06:31:38;7.10;;;4.70;;
73779;SDS011;62093;37.614;15.072;2023-05-29T06:34:04;6.70;;;4.30;;
73779;SDS011;62093;37.614;15.072;2023-05-29T06:36:31;7.20;;;4.35;;
73779;SDS011;62093;37.614;15.072;2023-05-29T06:38:58;6.93;;;4.37;;
73779;SDS011;62093;37.614;15.072;2023-05-29T06:41:24;6.75;;;4.15;;
73779;SDS011;62093;37.614;15.072;2023-05-29T06:43:50;6.85;;;4.60;;
73779;SDS011;62093;37.614;15.072;2023-05-29T06:46:17;7.20;;;4.10;;
73779;SDS011;62093;37.614;15.072;2023-05-29T06:48:43;6.95;;;4.20;;
73779;SDS011;62093;37.614;15.072;2023-05-29T06:51:09;6.67;;;3.93;;
73779;SDS011;62093;37.614;15.072;2023-05-29T06:53:40;7.53;;;4.43;;
73779;SDS011;62093;37.614;15.072;2023-05-29T06:56:09;7.43;;;4.57;;
73779;SDS011;62093;37.614;15.072;2023-05-29T06:58:35;6.18;;;3.72;;
73779;SDS011;62093;37.614;15.072;2023-05-29T07:01:01;7.25;;;4.65;;
73779;SDS011;62093;37.614;15.072;2023-05-29T07:03:31;6.63;;;4.13;;
73779;SDS011;62093;37.614;15.072;2023-05-29T07:05:58;6.63;;;4.13;;
73779;SDS011;62093;37.614;15.072;2023-05-29T07:08:24;7.18;;;4.18;;
73779;SDS011;62093;37.614;15.072;2023-05-29T07:10:51;7.30;;;4.22;;
73779;SDS011;62093;37.614;15.072;2023-05-29T07:13:20;6.97;;;4.40;;
73779;SDS011;62093;37.614;15.072;2023-05-29T07:15:47;6.57;;;4.37;;
73779;SDS011;62093;37.614;15.072;2023-05-29T07:18:14;7.32;;;4.25;;
73779;SDS011;62093;37.614;15.072;2023-05-29T07:20:41;6.80;;;4.10;;
73779;SDS011;62093;37.614;15.072;2023-05-29T07:23:11;7.53;;;4.50;;
73779;SDS011;62093;37.614;15.072;2023-05-29T07:25:37;6.85;;;4.07;;
73779;SDS011;62093;37.614;15.072;2023-05-29T07:28:03;6.93;;;4.10;;
73779;SDS011;62093;37.614;15.072;2023-05-29T07:30:29;6.50;;;3.95;;
73779;SDS011;62093;37.614;15.072;2023-05-29T07:32:55;6.60;;;4.25;;
73779;SDS011;62093;37.614;15.072;2023-05-29T07:35:21;7.20;;;4.00;;
73779;SDS011;62093;37.614;15.072;2023-05-29T07:37:48;7.93;;;4.50;;
73779;SDS011;62093;37.614;15.072;2023-05-29T07:40:16;6.72;;;4.32;;
73779;SDS011;62093;37.614;15.072;2023-05-29T07:43:00;7.43;;;4.30;;
73779;SDS011;62093;37.614;15.072;2023-05-29T07:45:38;6.30;;;3.83;;
73779;SDS011;62093;37.614;15.072;2023-05-29T07:48:04;6.97;;;3.78;;
73779;SDS011;62093;37.614;15.072;2023-05-29T07:50:31;6.60;;;4.13;;
73779;SDS011;62093;37.614;15.072;2023-05-29T07:52:57;7.43;;;4.45;;
73779;SDS011;62093;37.614;15.072;2023-05-29T07:55:23;7.18;;;4.38;;
73779;SDS011;62093;37.614;15.072;2023-05-29T07:57:50;8.43;;;4.30;;
73779;SDS011;62093;37.614;15.072;2023-05-29T08:00:16;7.03;;;3.92;;
73779;SDS011;62093;37.614;15.072;2023-05-29T14:20:26;7.70;;;5.23;;
73779;SDS011;62093;37.614;15.072;2023-05-29T14:22:52;7.95;;;5.78;;
73779;SDS011;62093;37.614;15.072;2023-05-29T14:25:18;8.13;;;5.38;;
73779;SDS011;62093;37.614;15.072;2023-05-29T14:27:44;7.57;;;4.80;;
73779;SDS011;62093;37.614;15.072;2023-05-29T14:30:10;8.40;;;5.57;;
73779;SDS011;62093;37.614;15.072;2023-05-29T14:32:37;7.60;;;5.50;;
73779;SDS011;62093;37.614;15.072;2023-05-29T14:35:03;8.02;;;5.20;;
73779;SDS011;62093;37.614;15.072;2023-05-29T14:37:29;7.70;;;5.30;;
73779;SDS011;62093;37.614;15.072;2023-05-29T14:39:54;9.73;;;5.83;;
73779;SDS011;62093;37.614;15.072;2023-05-29T14:42:20;8.15;;;5.25;;
73779;SDS011;62093;37.614;15.072;2023-05-29T14:44:47;7.05;;;4.85;;
73779;SDS011;62093;37.614;15.072;2023-05-29T14:47:12;8.43;;;5.20;;
73779;SDS011;62093;37.614;15.072;2023-05-29T14:49:38;8.05;;;5.50;;
73779;SDS011;62093;37.614;15.072;2023-05-29T14:52:04;7.97;;;5.45;;
73779;SDS011;62093;37.614;15.072;2023-05-29T14:54:30;8.90;;;5.20;;
73779;SDS011;62093;37.614;15.072;2023-05-29T14:56:56;7.82;;;5.38;;
73779;SDS011;62093;37.614;15.072;2023-05-29T14:59:23;7.88;;;5.07;;
73779;SDS011;62093;37.614;15.072;2023-05-29T15:01:49;8.35;;;5.40;;
73779;SDS011;62093;37.614;15.072;2023-05-29T15:04:15;8.00;;;5.30;;
73779;SDS011;62093;37.614;15.072;2023-05-29T15:06:41;7.72;;;5.15;;
73779;SDS011;62093;37.614;15.072;2023-05-29T15:09:07;8.02;;;5.38;;
73779;SDS011;62093;37.614;15.072;2023-05-29T15:11:33;7.43;;;4.70;;
73779;SDS011;62093;37.614;15.072;2023-05-29T15:13:59;7.45;;;5.22;;
73779;SDS011;62093;37.614;15.072;2023-05-29T15:16:25;8.38;;;5.20;;
73779;SDS011;62093;37.614;15.072;2023-05-29T15:18:51;8.23;;;5.68;;
73779;SDS011;62093;37.614;15.072;2023-05-29T15:21:17;7.67;;;5.20;;
73779;SDS011;62093;37.614;15.072;2023-05-29T15:23:43;8.80;;;6.13;;
73779;SDS011;62093;37.614;15.072;2023-05-29T15:26:09;7.63;;;5.50;;
73779;SDS011;62093;37.614;15.072;2023-05-29T15:28:35;8.27;;;5.85;;
73779;SDS011;62093;37.614;15.072;2023-05-29T15:31:01;8.60;;;5.53;;
73779;SDS011;62093;37.614;15.072;2023-05-29T15:33:27;8.05;;;5.30;;
73779;SDS011;62093;37.614;15.072;2023-05-29T15:35:53;8.10;;;5.40;;
73779;SDS011;62093;37.614;15.072;2023-05-29T15:38:19;7.27;;;4.90;;
73779;SDS011;62093;37.614;15.072;2023-05-29T15:40:45;8.50;;;5.22;;
73779;SDS011;62093;37.614;15.072;2023-05-29T15:43:11;8.82;;;5.20;;
73779;SDS011;62093;37.614;15.072;2023-05-29T15:45:37;9.18;;;5.63;;
73779;SDS011;62093;37.614;15.072;2023-05-29T15:48:03;8.13;;;5.03;;
73779;SDS011;62093;37.614;15.072;2023-05-29T15:50:30;7.60;;;5.38;;
73779;SDS011;62093;37.614;15.072;2023-05-29T15:52:56;8.60;;;5.57;;
73779;SDS011;62093;37.614;15.072;2023-05-29T15:55:25;7.60;;;5.18;;
73779;SDS011;62093;37.614;15.072;2023-05-29T15:57:51;7.45;;;4.80;;
73779;SDS011;62093;37.614;15.072;2023-05-29T16:00:17;8.27;;;5.23;;
73779;SDS011;62093;37.614;15.072;2023-05-29T16:02:43;8.38;;;5.18;;
73779;SDS011;62093;37.614;15.072;2023-05-29T16:05:09;7.45;;;4.95;;
73779;SDS011;62093;37.614;15.072;2023-05-29T16:07:36;8.13;;;4.97;;
73779;SDS011;62093;37.614;15.072;2023-05-29T16:10:03;8.07;;;5.17;;
73779;SDS011;62093;37.614;15.072;2023-05-29T16:12:29;8.43;;;4.82;;
73779;SDS011;62093;37.614;15.072;2023-05-29T16:14:57;8.20;;;5.03;;
73779;SDS011;62093;37.614;15.072;2023-05-29T16:17:24;8.25;;;4.90;;
73779;SDS011;62093;37.614;15.072;2023-05-29T16:19:51;7.13;;;4.82;;
73779;SDS011;62093;37.614;15.072;2023-05-29T16:22:20;7.80;;;5.17;;
73779;SDS011;62093;37.614;15.072;2023-05-29T16:24:47;8.68;;;5.30;;
73779;SDS011;62093;37.614;15.072;2023-05-29T16:27:14;7.50;;;4.80;;
73779;SDS011;62093;37.614;15.072;2023-05-29T16:29:39;7.70;;;5.45;;
73779;SDS011;62093;37.614;15.072;2023-05-29T16:32:05;8.07;;;5.13;;
73779;SDS011;62093;37.614;15.072;2023-05-29T16:34:31;7.55;;;5.10;;
73779;SDS011;62093;37.614;15.072;2023-05-29T16:36:57;8.90;;;5.13;;
73779;SDS011;62093;37.614;15.072;2023-05-29T16:39:23;7.97;;;4.75;;
73779;SDS011;62093;37.614;15.072;2023-05-29T16:41:52;7.80;;;4.87;;
73779;SDS011;62093;37.614;15.072;2023-05-29T16:44:18;7.47;;;4.80;;
73779;SDS011;62093;37.614;15.072;2023-05-29T16:46:44;7.72;;;4.93;;
73779;SDS011;62093;37.614;15.072;2023-05-29T16:49:10;7.63;;;4.83;;
73779;SDS011;62093;37.614;15.072;2023-05-29T16:51:35;8.20;;;4.75;;
73779;SDS011;62093;37.614;15.072;2023-05-29T16:54:01;8.65;;;5.10;;
73779;SDS011;62093;37.614;15.072;2023-05-29T16:56:27;7.57;;;4.83;;
73779;SDS011;62093;37.614;15.072;2023-05-29T16:58:53;8.07;;;4.78;;
73779;SDS011;62093;37.614;15.072;2023-05-29T17:01:19;8.52;;;4.90;;
73779;SDS011;62093;37.614;15.072;2023-05-29T17:03:45;7.87;;;4.60;;
73779;SDS011;62093;37.614;15.072;2023-05-29T17:06:11;7.53;;;4.82;;
73779;SDS011;62093;37.614;15.072;2023-05-29T17:08:37;7.90;;;4.80;;
73779;SDS011;62093;37.614;15.072;2023-05-29T17:11:03;8.35;;;4.53;;
73779;SDS011;62093;37.614;15.072;2023-05-29T17:13:29;7.97;;;4.85;;
73779;SDS011;62093;37.614;15.072;2023-05-29T17:15:55;7.47;;;5.00;;
73779;SDS011;62093;37.614;15.072;2023-05-29T17:18:21;7.82;;;4.68;;
73779;SDS011;62093;37.614;15.072;2023-05-29T17:20:47;7.43;;;4.90;;
73779;SDS011;62093;37.614;15.072;2023-05-29T17:23:12;6.97;;;4.83;;
73779;SDS011;62093;37.614;15.072;2023-05-29T17:25:38;7.30;;;4.55;;
73779;SDS011;62093;37.614;15.072;2023-05-29T17:28:05;8.25;;;4.70;;
73779;SDS011;62093;37.614;15.072;2023-05-29T17:30:35;7.50;;;5.28;;
73779;SDS011;62093;37.614;15.072;2023-05-29T17:33:02;7.83;;;5.40;;
73779;SDS011;62093;37.614;15.072;2023-05-29T17:35:28;7.40;;;4.63;;
73779;SDS011;62093;37.614;15.072;2023-05-29T17:37:55;8.80;;;5.10;;
73779;SDS011;62093;37.614;15.072;2023-05-29T17:40:21;7.95;;;4.65;;
73779;SDS011;62093;37.614;15.072;2023-05-29T17:42:46;7.30;;;4.20;;
73779;SDS011;62093;37.614;15.072;2023-05-29T17:45:12;6.88;;;4.57;;
73779;SDS011;62093;37.614;15.072;2023-05-29T17:47:39;7.15;;;4.55;;
73779;SDS011;62093;37.614;15.072;2023-05-29T17:50:05;7.13;;;4.70;;
73779;SDS011;62093;37.614;15.072;2023-05-29T17:52:32;6.97;;;4.70;;
73779;SDS011;62093;37.614;15.072;2023-05-29T17:54:59;8.27;;;4.90;;
73779;SDS011;62093;37.614;15.072;2023-05-29T17:57:25;7.57;;;4.85;;
73779;SDS011;62093;37.614;15.072;2023-05-29T17:59:51;7.18;;;4.32;;
73779;SDS011;62093;37.614;15.072;2023-05-29T18:02:17;7.18;;;4.63;;
73779;SDS011;62093;37.614;15.072;2023-05-29T18:04:44;7.83;;;4.57;;
73779;SDS011;62093;37.614;15.072;2023-05-29T18:07:14;7.47;;;4.53;;
73779;SDS011;62093;37.614;15.072;2023-05-29T18:09:45;7.22;;;4.53;;
73779;SDS011;62093;37.614;15.072;2023-05-29T18:12:11;7.13;;;4.50;;
73779;SDS011;62093;37.614;15.072;2023-05-29T18:14:37;7.40;;;4.87;;
73779;SDS011;62093;37.614;15.072;2023-05-29T18:17:04;7.32;;;4.50;;
73779;SDS011;62093;37.614;15.072;2023-05-29T18:19:31;7.25;;;4.32;;
73779;SDS011;62093;37.614;15.072;2023-05-29T18:21:58;8.45;;;4.50;;
73779;SDS011;62093;37.614;15.072;2023-05-29T18:24:23;7.40;;;4.57;;
73779;SDS011;62093;37.614;15.072;2023-05-29T18:26:49;7.27;;;4.63;;
73779;SDS011;62093;37.614;15.072;2023-05-29T18:29:15;7.38;;;4.72;;
73779;SDS011;62093;37.614;15.072;2023-05-29T18:31:41;7.15;;;4.60;;
73779;SDS011;62093;37.614;15.072;2023-05-29T18:34:07;7.17;;;4.23;;
73779;SDS011;62093;37.614;15.072;2023-05-29T18:36:33;7.57;;;4.47;;
73779;SDS011;62093;37.614;15.072;2023-05-29T18:39:00;6.95;;;4.70;;
73779;SDS011;62093;37.614;15.072;2023-05-29T18:41:26;8.63;;;4.60;;
73779;SDS011;62093;37.614;15.072;2023-05-29T18:43:53;7.10;;;4.67;;
73779;SDS011;62093;37.614;15.072;2023-05-29T18:46:19;7.97;;;5.00;;
73779;SDS011;62093;37.614;15.072;2023-05-29T18:48:46;6.63;;;4.32;;
73779;SDS011;62093;37.614;15.072;2023-05-29T18:51:12;6.93;;;4.20;;
73779;SDS011;62093;37.614;15.072;2023-05-29T18:53:38;7.50;;;4.90;;
73779;SDS011;62093;37.614;15.072;2023-05-29T18:56:09;6.55;;;4.50;;
73779;SDS011;62093;37.614;15.072;2023-05-29T18:58:35;6.95;;;4.40;;
73779;SDS011;62093;37.614;15.072;2023-05-29T19:01:01;7.45;;;4.68;;
73779;SDS011;62093;37.614;15.072;2023-05-29T19:03:27;8.17;;;4.57;;
73779;SDS011;62093;37.614;15.072;2023-05-29T19:05:53;7.10;;;4.57;;
73779;SDS011;62093;37.614;15.072;2023-05-29T19:08:19;8.00;;;4.55;;
73779;SDS011;62093;37.614;15.072;2023-05-29T19:10:46;7.33;;;4.13;;
73779;SDS011;62093;37.614;15.072;2023-05-29T19:13:12;7.03;;;4.57;;
73779;SDS011;62093;37.614;15.072;2023-05-29T19:15:38;7.32;;;4.43;;
73779;SDS011;62093;37.614;15.072;2023-05-29T19:18:04;6.15;;;4.10;;
73779;SDS011;62093;37.614;15.072;2023-05-29T19:20:30;7.47;;;4.80;;
73779;SDS011;62093;37.614;15.072;2023-05-29T19:22:56;7.10;;;4.43;;
73779;SDS011;62093;37.614;15.072;2023-05-29T19:25:22;7.00;;;4.18;;
73779;SDS011;62093;37.614;15.072;2023-05-29T19:27:48;7.57;;;4.50;;
73779;SDS011;62093;37.614;15.072;2023-05-29T19:30:16;7.50;;;4.60;;
73779;SDS011;62093;37.614;15.072;2023-05-29T19:32:43;7.35;;;4.65;;
73779;SDS011;62093;37.614;15.072;2023-05-29T19:35:11;7.50;;;4.57;;
73779;SDS011;62093;37.614;15.072;2023-05-29T19:37:37;7.15;;;4.35;;
73779;SDS011;62093;37.614;15.072;2023-05-29T19:40:03;8.00;;;4.70;;
73779;SDS011;62093;37.614;15.072;2023-05-29T19:42:30;8.07;;;4.65;;
73779;SDS011;62093;37.614;15.072;2023-05-29T19:44:56;7.25;;;4.70;;
73779;SDS011;62093;37.614;15.072;2023-05-29T19:47:22;7.55;;;4.65;;
73779;SDS011;62093;37.614;15.072;2023-05-29T19:49:49;7.30;;;4.53;;
73779;SDS011;62093;37.614;15.072;2023-05-29T19:52:15;8.52;;;4.40;;
73779;SDS011;62093;37.614;15.072;2023-05-29T19:54:41;8.50;;;5.32;;
73779;SDS011;62093;37.614;15.072;2023-05-29T19:57:08;9.70;;;4.70;;
73779;SDS011;62093;37.614;15.072;2023-05-29T19:59:34;9.13;;;4.73;;
73779;SDS011;62093;37.614;15.072;2023-05-29T20:02:01;7.68;;;5.00;;
73779;SDS011;62093;37.614;15.072;2023-05-29T20:04:29;8.35;;;5.05;;
73779;SDS011;62093;37.614;15.072;2023-05-29T20:06:56;9.02;;;4.68;;
73779;SDS011;62093;37.614;15.072;2023-05-29T20:09:22;8.75;;;5.10;;
73779;SDS011;62093;37.614;15.072;2023-05-29T20:11:49;7.93;;;5.00;;
73779;SDS011;62093;37.614;15.072;2023-05-29T20:14:15;8.40;;;4.90;;
73779;SDS011;62093;37.614;15.072;2023-05-29T20:16:42;10.15;;;4.82;;
73779;SDS011;62093;37.614;15.072;2023-05-29T20:19:08;7.43;;;4.88;;
73779;SDS011;62093;37.614;15.072;2023-05-29T20:21:35;7.38;;;4.53;;
73779;SDS011;62093;37.614;15.072;2023-05-29T20:24:02;6.83;;;4.53;;
73779;SDS011;62093;37.614;15.072;2023-05-29T20:26:28;7.88;;;4.70;;
73779;SDS011;62093;37.614;15.072;2023-05-29T20:28:57;7.78;;;5.30;;
73779;SDS011;62093;37.614;15.072;2023-05-29T20:31:23;7.35;;;4.65;;
73779;SDS011;62093;37.614;15.072;2023-05-29T20:33:50;8.02;;;5.13;;
73779;SDS011;62093;37.614;15.072;2023-05-29T20:36:16;8.27;;;4.50;;
73779;SDS011;62093;37.614;15.072;2023-05-29T20:38:44;7.55;;;4.72;;
73779;SDS011;62093;37.614;15.072;2023-05-29T20:41:14;7.35;;;4.82;;
73779;SDS011;62093;37.614;15.072;2023-05-29T20:43:41;8.93;;;5.20;;
73779;SDS011;62093;37.614;15.072;2023-05-29T20:46:12;7.75;;;4.75;;
73779;SDS011;62093;37.614;15.072;2023-05-29T20:48:38;8.27;;;5.33;;
73779;SDS011;62093;37.614;15.072;2023-05-29T20:51:03;7.32;;;4.53;;
73779;SDS011;62093;37.614;15.072;2023-05-29T20:53:30;8.48;;;4.85;;
73779;SDS011;62093;37.614;15.072;2023-05-29T20:55:56;7.40;;;4.40;;
73779;SDS011;62093;37.614;15.072;2023-05-29T20:58:21;8.38;;;4.55;;
73779;SDS011;62093;37.614;15.072;2023-05-29T21:00:47;8.02;;;4.38;;